This is the latest recevied weather packets stored in our database for station/object IZ3VCM. If no packets are shown the sender has not sent any weather packets the latest 10 day(s).
| Time | Temp. | Humidity | Pressure | Rain* | Wind** | Luminosity | Snow |
|---|---|---|---|---|---|---|---|
| 1778058903 | 16.67° C | 90% | 1010.2 hPa | 0 mm | - | - | - |
| 1778058005 | 15.56° C | 89% | 1010.1 hPa | 0 mm | - | - | - |
| 1778057103 | 15.56° C | 89% | 1010.3 hPa | 0 mm | - | - | - |
| 1778056205 | 16.11° C | 89% | 1010.2 hPa | 0 mm | - | - | - |
| 1778055303 | 16.67° C | 89% | 1010 hPa | 0 mm | - | - | - |
| 1778054405 | 16.67° C | 90% | 1009.8 hPa | 0 mm | - | - | - |
| 1778053502 | 16.67° C | 91% | 1010 hPa | 0 mm | - | - | - |
| 1778052605 | 16.11° C | 91% | 1010.1 hPa | 0 mm | - | - | - |
| 1778051703 | 15° C | 91% | 1009.9 hPa | 0 mm | - | - | - |
| 1778050806 | 15° C | 92% | 1010 hPa | 0 mm | - | - | - |
| 1778049903 | 15° C | 92% | 1010.1 hPa | 0 mm | - | - | - |
| 1778019303 | 11.11° C | 90% | 1011.9 hPa | 0 mm | - | - | - |
| 1778018407 | 11.67° C | 90% | 1012 hPa | 0 mm | - | - | - |
| 1778017504 | 12.22° C | 90% | 1012.1 hPa | 0 mm | - | - | - |
| 1778016606 | 12.22° C | 90% | 1012.3 hPa | 0 mm | - | - | - |
| 1778015704 | 12.22° C | 90% | 1012.4 hPa | 0 mm | - | - | - |
| 1778014806 | 12.22° C | 90% | 1012.5 hPa | 0 mm | - | - | - |
| 1778013904 | 12.22° C | 89% | 1012.5 hPa | 0 mm | - | - | - |
| 1778013005 | 12.78° C | 89% | 1012.5 hPa | 0 mm | - | - | - |
| 1778012103 | 12.78° C | 89% | 1012.4 hPa | 0 mm | - | - | - |
| 1778011206 | 13.33° C | 89% | 1012.4 hPa | 0 mm | - | - | - |
| 1778010304 | 13.33° C | 88% | 1012.3 hPa | 0 mm | - | - | - |
| 1778009406 | 13.33° C | 88% | 1012.1 hPa | 0 mm | - | - | - |
| 1778008504 | 13.89° C | 88% | 1012.1 hPa | 0 mm | - | - | - |
| 1778007606 | 14.44° C | 87% | 1012.1 hPa | 0 mm | - | - | - |
* Rain latest hour (hover to see other rain measurements)
** Current wind speed in m/s (hover to see current wind gust speed)